sensor_id;sensor_type;location;lat;lon;timestamp;temperature;humidity
20364;DHT22;10340;53.664;9.908;2023-02-26T00:01:41;-1.00;99.90
20364;DHT22;10340;53.664;9.908;2023-02-26T00:04:09;-1.00;99.90
20364;DHT22;10340;53.664;9.908;2023-02-26T00:06:37;-1.00;99.90
20364;DHT22;10340;53.664;9.908;2023-02-26T00:09:17;-1.10;99.90
20364;DHT22;10340;53.664;9.908;2023-02-26T00:11:44;-1.10;99.90
20364;DHT22;10340;53.664;9.908;2023-02-26T00:14:14;-1.10;99.90
20364;DHT22;10340;53.664;9.908;2023-02-26T00:16:46;-1.00;99.90
20364;DHT22;10340;53.664;9.908;2023-02-26T00:19:14;-1.00;99.90
20364;DHT22;10340;53.664;9.908;2023-02-26T00:21:41;-1.00;99.90
20364;DHT22;10340;53.664;9.908;2023-02-26T00:24:08;-1.00;99.90
20364;DHT22;10340;53.664;9.908;2023-02-26T00:26:35;-1.00;99.90
20364;DHT22;10340;53.664;9.908;2023-02-26T00:29:03;-1.10;99.90
20364;DHT22;10340;53.664;9.908;2023-02-26T00:31:30;-1.10;99.90
20364;DHT22;10340;53.664;9.908;2023-02-26T00:33:59;-1.10;99.90
20364;DHT22;10340;53.664;9.908;2023-02-26T00:36:33;-1.10;99.90
20364;DHT22;10340;53.664;9.908;2023-02-26T00:39:07;-1.10;99.90
20364;DHT22;10340;53.664;9.908;2023-02-26T00:41:36;-1.10;99.90
20364;DHT22;10340;53.664;9.908;2023-02-26T00:44:04;-1.10;99.90
20364;DHT22;10340;53.664;9.908;2023-02-26T00:46:40;-1.10;99.90
20364;DHT22;10340;53.664;9.908;2023-02-26T00:49:20;-1.10;99.90
20364;DHT22;10340;53.664;9.908;2023-02-26T00:51:51;-1.10;99.90
20364;DHT22;10340;53.664;9.908;2023-02-26T00:54:20;-1.10;99.90
20364;DHT22;10340;53.664;9.908;2023-02-26T00:56:48;-1.10;99.90
20364;DHT22;10340;53.664;9.908;2023-02-26T00:59:15;-1.20;99.90
20364;DHT22;10340;53.664;9.908;2023-02-26T01:01:42;-1.10;99.90
20364;DHT22;10340;53.664;9.908;2023-02-26T01:04:12;-1.10;99.90
20364;DHT22;10340;53.664;9.908;2023-02-26T01:06:42;-1.10;99.90
20364;DHT22;10340;53.664;9.908;2023-02-26T01:09:15;-1.10;99.90
20364;DHT22;10340;53.664;9.908;2023-02-26T01:11:44;-1.10;99.90
20364;DHT22;10340;53.664;9.908;2023-02-26T01:14:12;-1.10;99.90
20364;DHT22;10340;53.664;9.908;2023-02-26T01:16:44;-1.10;99.90
20364;DHT22;10340;53.664;9.908;2023-02-26T01:19:19;-1.10;99.90
20364;DHT22;10340;53.664;9.908;2023-02-26T01:21:53;-1.10;99.90
20364;DHT22;10340;53.664;9.908;2023-02-26T01:24:22;-1.10;99.90
20364;DHT22;10340;53.664;9.908;2023-02-26T01:26:51;-1.10;99.90
20364;DHT22;10340;53.664;9.908;2023-02-26T01:29:18;-1.10;99.90
20364;DHT22;10340;53.664;9.908;2023-02-26T01:31:49;-1.00;99.90
20364;DHT22;10340;53.664;9.908;2023-02-26T01:34:24;-1.10;99.90
20364;DHT22;10340;53.664;9.908;2023-02-26T01:36:56;-1.00;99.90
20364;DHT22;10340;53.664;9.908;2023-02-26T01:39:27;-1.00;99.90
20364;DHT22;10340;53.664;9.908;2023-02-26T01:42:00;-1.00;99.90
20364;DHT22;10340;53.664;9.908;2023-02-26T01:44:35;-1.00;99.90
20364;DHT22;10340;53.664;9.908;2023-02-26T01:47:17;-1.00;99.90
20364;DHT22;10340;53.664;9.908;2023-02-26T01:49:48;-1.00;99.90
20364;DHT22;10340;53.664;9.908;2023-02-26T01:55:28;-0.90;99.90
20364;DHT22;10340;53.664;9.908;2023-02-26T01:57:58;-0.90;99.90
20364;DHT22;10340;53.664;9.908;2023-02-26T02:00:26;-0.90;99.90
20364;DHT22;10340;53.664;9.908;2023-02-26T02:02:54;-0.90;99.90
20364;DHT22;10340;53.664;9.908;2023-02-26T02:05:27;-1.00;99.90
20364;DHT22;10340;53.664;9.908;2023-02-26T02:07:55;-1.00;99.90
20364;DHT22;10340;53.664;9.908;2023-02-26T02:10:22;-1.10;99.90
20364;DHT22;10340;53.664;9.908;2023-02-26T02:12:54;-1.10;99.90
20364;DHT22;10340;53.664;9.908;2023-02-26T02:15:37;-1.20;99.90
20364;DHT22;10340;53.664;9.908;2023-02-26T02:18:14;-1.20;99.90
20364;DHT22;10340;53.664;9.908;2023-02-26T02:21:21;-1.30;99.90
20364;DHT22;10340;53.664;9.908;2023-02-26T02:23:56;-1.30;99.90
20364;DHT22;10340;53.664;9.908;2023-02-26T02:26:52;-1.40;99.90
20364;DHT22;10340;53.664;9.908;2023-02-26T02:32:36;-1.50;99.90
20364;DHT22;10340;53.664;9.908;2023-02-26T02:35:11;-1.50;99.90
20364;DHT22;10340;53.664;9.908;2023-02-26T02:37:44;-1.50;99.90
20364;DHT22;10340;53.664;9.908;2023-02-26T02:40:14;-1.60;99.90
20364;DHT22;10340;53.664;9.908;2023-02-26T02:42:45;-1.60;99.90
20364;DHT22;10340;53.664;9.908;2023-02-26T02:45:19;-1.60;99.90
20364;DHT22;10340;53.664;9.908;2023-02-26T02:47:54;-1.60;99.90
20364;DHT22;10340;53.664;9.908;2023-02-26T02:50:28;-1.60;99.90
20364;DHT22;10340;53.664;9.908;2023-02-26T02:52:59;-1.70;99.90
20364;DHT22;10340;53.664;9.908;2023-02-26T02:55:29;-1.70;99.90
20364;DHT22;10340;53.664;9.908;2023-02-26T02:58:02;-1.70;99.90
20364;DHT22;10340;53.664;9.908;2023-02-26T03:00:34;-1.70;99.90
20364;DHT22;10340;53.664;9.908;2023-02-26T03:03:08;-1.70;99.90
20364;DHT22;10340;53.664;9.908;2023-02-26T03:05:37;-1.80;99.90
20364;DHT22;10340;53.664;9.908;2023-02-26T03:08:07;-1.80;99.90
20364;DHT22;10340;53.664;9.908;2023-02-26T03:10:34;-1.80;99.90
20364;DHT22;10340;53.664;9.908;2023-02-26T03:13:02;-1.90;99.90
20364;DHT22;10340;53.664;9.908;2023-02-26T03:15:35;-1.90;99.90
20364;DHT22;10340;53.664;9.908;2023-02-26T03:18:13;-1.90;99.90
20364;DHT22;10340;53.664;9.908;2023-02-26T03:20:49;-1.90;99.90
20364;DHT22;10340;53.664;9.908;2023-02-26T03:23:21;-2.00;99.90
20364;DHT22;10340;53.664;9.908;2023-02-26T03:25:52;-2.00;99.90
20364;DHT22;10340;53.664;9.908;2023-02-26T03:28:25;-2.00;99.90
20364;DHT22;10340;53.664;9.908;2023-02-26T03:30:57;-2.10;99.90
20364;DHT22;10340;53.664;9.908;2023-02-26T03:33:32;-2.10;99.90
20364;DHT22;10340;53.664;9.908;2023-02-26T03:36:05;-2.10;99.90
20364;DHT22;10340;53.664;9.908;2023-02-26T03:38:42;-2.20;99.90
20364;DHT22;10340;53.664;9.908;2023-02-26T03:41:13;-2.20;99.90
20364;DHT22;10340;53.664;9.908;2023-02-26T03:43:44;-2.20;99.90
20364;DHT22;10340;53.664;9.908;2023-02-26T03:46:15;-2.20;99.90
20364;DHT22;10340;53.664;9.908;2023-02-26T03:48:45;-2.20;99.90
20364;DHT22;10340;53.664;9.908;2023-02-26T03:51:14;-2.20;99.90
20364;DHT22;10340;53.664;9.908;2023-02-26T03:53:46;-2.30;99.90
20364;DHT22;10340;53.664;9.908;2023-02-26T03:56:17;-2.20;99.90
20364;DHT22;10340;53.664;9.908;2023-02-26T03:58:46;-2.20;99.90
20364;DHT22;10340;53.664;9.908;2023-02-26T04:01:15;-2.30;99.90
20364;DHT22;10340;53.664;9.908;2023-02-26T04:03:48;-2.30;99.90
20364;DHT22;10340;53.664;9.908;2023-02-26T04:06:18;-2.30;99.90
20364;DHT22;10340;53.664;9.908;2023-02-26T04:08:45;-2.30;99.90
20364;DHT22;10340;53.664;9.908;2023-02-26T04:11:15;-2.30;99.90
20364;DHT22;10340;53.664;9.908;2023-02-26T04:13:43;-2.30;99.90
20364;DHT22;10340;53.664;9.908;2023-02-26T04:16:10;-2.30;99.90
20364;DHT22;10340;53.664;9.908;2023-02-26T04:18:40;-2.30;99.90
20364;DHT22;10340;53.664;9.908;2023-02-26T04:21:12;-2.30;99.90
20364;DHT22;10340;53.664;9.908;2023-02-26T04:23:39;-2.30;99.90
20364;DHT22;10340;53.664;9.908;2023-02-26T04:26:06;-2.30;99.90
20364;DHT22;10340;53.664;9.908;2023-02-26T04:28:33;-2.30;99.90
20364;DHT22;10340;53.664;9.908;2023-02-26T04:31:02;-2.30;99.90
20364;DHT22;10340;53.664;9.908;2023-02-26T04:33:29;-2.40;99.90
20364;DHT22;10340;53.664;9.908;2023-02-26T04:35:57;-2.40;99.90
20364;DHT22;10340;53.664;9.908;2023-02-26T04:38:27;-2.40;99.90
20364;DHT22;10340;53.664;9.908;2023-02-26T04:40:54;-2.40;99.90
20364;DHT22;10340;53.664;9.908;2023-02-26T04:43:22;-2.40;99.90
20364;DHT22;10340;53.664;9.908;2023-02-26T04:45:49;-2.40;99.90
20364;DHT22;10340;53.664;9.908;2023-02-26T04:48:17;-2.40;99.90
20364;DHT22;10340;53.664;9.908;2023-02-26T04:50:45;-2.40;99.90
20364;DHT22;10340;53.664;9.908;2023-02-26T04:53:12;-2.50;99.90
20364;DHT22;10340;53.664;9.908;2023-02-26T04:55:40;-2.50;99.90
20364;DHT22;10340;53.664;9.908;2023-02-26T04:58:07;-2.50;99.90
20364;DHT22;10340;53.664;9.908;2023-02-26T05:00:35;-2.50;99.90
20364;DHT22;10340;53.664;9.908;2023-02-26T05:03:02;-2.50;99.90
20364;DHT22;10340;53.664;9.908;2023-02-26T05:05:29;-2.50;99.90
20364;DHT22;10340;53.664;9.908;2023-02-26T05:07:56;-2.60;99.90
20364;DHT22;10340;53.664;9.908;2023-02-26T05:10:23;-2.60;99.90
20364;DHT22;10340;53.664;9.908;2023-02-26T05:12:52;-2.60;99.90
20364;DHT22;10340;53.664;9.908;2023-02-26T05:15:21;-2.60;99.90
20364;DHT22;10340;53.664;9.908;2023-02-26T05:17:48;-2.60;99.90
20364;DHT22;10340;53.664;9.908;2023-02-26T05:20:15;-2.60;99.90
20364;DHT22;10340;53.664;9.908;2023-02-26T05:22:43;-2.60;99.90
20364;DHT22;10340;53.664;9.908;2023-02-26T05:25:10;-2.60;99.90
20364;DHT22;10340;53.664;9.908;2023-02-26T05:27:38;-2.60;99.90
20364;DHT22;10340;53.664;9.908;2023-02-26T05:30:10;-2.60;99.90
20364;DHT22;10340;53.664;9.908;2023-02-26T05:32:39;-2.60;99.90
20364;DHT22;10340;53.664;9.908;2023-02-26T05:35:06;-2.60;99.90
20364;DHT22;10340;53.664;9.908;2023-02-26T05:37:33;-2.60;99.90
20364;DHT22;10340;53.664;9.908;2023-02-26T05:40:00;-2.70;99.90
20364;DHT22;10340;53.664;9.908;2023-02-26T05:42:27;-2.60;99.90
20364;DHT22;10340;53.664;9.908;2023-02-26T05:44:54;-2.70;99.90
20364;DHT22;10340;53.664;9.908;2023-02-26T05:47:23;-2.70;99.90
20364;DHT22;10340;53.664;9.908;2023-02-26T05:49:50;-2.70;99.90
20364;DHT22;10340;53.664;9.908;2023-02-26T05:52:18;-2.70;99.90
20364;DHT22;10340;53.664;9.908;2023-02-26T05:54:45;-2.80;99.90
20364;DHT22;10340;53.664;9.908;2023-02-26T05:57:12;-2.80;99.90
20364;DHT22;10340;53.664;9.908;2023-02-26T05:59:39;-2.80;99.90
20364;DHT22;10340;53.664;9.908;2023-02-26T06:02:06;-2.80;99.90
20364;DHT22;10340;53.664;9.908;2023-02-26T06:04:35;-2.80;99.90
20364;DHT22;10340;53.664;9.908;2023-02-26T06:07:02;-2.90;99.90
20364;DHT22;10340;53.664;9.908;2023-02-26T06:09:29;-2.90;99.90
20364;DHT22;10340;53.664;9.908;2023-02-26T06:11:56;-2.90;99.90
20364;DHT22;10340;53.664;9.908;2023-02-26T06:14:23;-2.90;99.90
20364;DHT22;10340;53.664;9.908;2023-02-26T06:16:52;-2.90;99.90
20364;DHT22;10340;53.664;9.908;2023-02-26T06:19:19;-3.00;99.90
20364;DHT22;10340;53.664;9.908;2023-02-26T06:21:48;-3.00;99.90
20364;DHT22;10340;53.664;9.908;2023-02-26T06:24:15;-3.00;99.90
20364;DHT22;10340;53.664;9.908;2023-02-26T06:26:42;-2.90;99.90
20364;DHT22;10340;53.664;9.908;2023-02-26T06:29:09;-2.90;99.90
20364;DHT22;10340;53.664;9.908;2023-02-26T06:31:36;-2.90;99.90
20364;DHT22;10340;53.664;9.908;2023-02-26T06:34:03;-2.90;99.90
20364;DHT22;10340;53.664;9.908;2023-02-26T06:36:30;-2.80;99.90
20364;DHT22;10340;53.664;9.908;2023-02-26T06:38:58;-2.80;99.90
20364;DHT22;10340;53.664;9.908;2023-02-26T06:41:25;-2.80;99.90
20364;DHT22;10340;53.664;9.908;2023-02-26T06:43:52;-2.80;99.90
20364;DHT22;10340;53.664;9.908;2023-02-26T06:46:19;-2.70;99.90
20364;DHT22;10340;53.664;9.908;2023-02-26T06:48:46;-2.70;99.90
20364;DHT22;10340;53.664;9.908;2023-02-26T06:51:13;-2.60;99.90
20364;DHT22;10340;53.664;9.908;2023-02-26T06:53:40;-2.50;99.90
20364;DHT22;10340;53.664;9.908;2023-02-26T06:56:09;-2.50;99.90
20364;DHT22;10340;53.664;9.908;2023-02-26T06:58:37;-2.40;99.90
20364;DHT22;10340;53.664;9.908;2023-02-26T07:01:04;-2.40;99.90
20364;DHT22;10340;53.664;9.908;2023-02-26T07:03:31;-2.30;99.90
20364;DHT22;10340;53.664;9.908;2023-02-26T07:05:58;-2.20;99.90
20364;DHT22;10340;53.664;9.908;2023-02-26T07:08:25;-2.20;99.90
20364;DHT22;10340;53.664;9.908;2023-02-26T07:10:52;-2.20;99.90
20364;DHT22;10340;53.664;9.908;2023-02-26T07:13:20;-2.20;99.90
20364;DHT22;10340;53.664;9.908;2023-02-26T07:15:47;-2.20;99.90
20364;DHT22;10340;53.664;9.908;2023-02-26T07:18:14;-2.10;99.90
20364;DHT22;10340;53.664;9.908;2023-02-26T07:20:42;-2.00;99.90
20364;DHT22;10340;53.664;9.908;2023-02-26T07:23:09;-1.90;99.90
20364;DHT22;10340;53.664;9.908;2023-02-26T07:25:36;-1.80;99.90
20364;DHT22;10340;53.664;9.908;2023-02-26T07:28:04;-1.70;99.90
20364;DHT22;10340;53.664;9.908;2023-02-26T07:30:33;-1.60;99.90
20364;DHT22;10340;53.664;9.908;2023-02-26T07:33:00;-1.60;99.90
20364;DHT22;10340;53.664;9.908;2023-02-26T07:35:27;-1.50;99.90
20364;DHT22;10340;53.664;9.908;2023-02-26T07:37:54;-1.40;99.90
20364;DHT22;10340;53.664;9.908;2023-02-26T07:40:21;-1.30;99.90
20364;DHT22;10340;53.664;9.908;2023-02-26T07:42:48;-1.30;99.90
20364;DHT22;10340;53.664;9.908;2023-02-26T07:45:15;-1.10;99.90
20364;DHT22;10340;53.664;9.908;2023-02-26T07:47:48;-1.10;99.90
20364;DHT22;10340;53.664;9.908;2023-02-26T07:50:15;-1.00;99.90
20364;DHT22;10340;53.664;9.908;2023-02-26T07:52:42;-0.90;99.90
20364;DHT22;10340;53.664;9.908;2023-02-26T07:55:10;-0.80;99.90
20364;DHT22;10340;53.664;9.908;2023-02-26T07:57:38;-0.80;99.90
20364;DHT22;10340;53.664;9.908;2023-02-26T08:00:06;-0.70;99.90
20364;DHT22;10340;53.664;9.908;2023-02-26T08:02:34;-0.60;99.90
20364;DHT22;10340;53.664;9.908;2023-02-26T08:05:02;-0.50;99.90
20364;DHT22;10340;53.664;9.908;2023-02-26T08:07:29;-0.40;99.90
20364;DHT22;10340;53.664;9.908;2023-02-26T08:09:56;-0.40;99.90
20364;DHT22;10340;53.664;9.908;2023-02-26T08:12:23;-0.30;99.90
20364;DHT22;10340;53.664;9.908;2023-02-26T08:14:50;-0.20;99.90
20364;DHT22;10340;53.664;9.908;2023-02-26T08:17:17;-0.20;99.90
20364;DHT22;10340;53.664;9.908;2023-02-26T08:19:44;-0.10;99.90
20364;DHT22;10340;53.664;9.908;2023-02-26T08:22:13;0.00;99.90
20364;DHT22;10340;53.664;9.908;2023-02-26T08:27:07;0.20;99.90
20364;DHT22;10340;53.664;9.908;2023-02-26T08:29:34;0.30;99.90
20364;DHT22;10340;53.664;9.908;2023-02-26T08:32:01;0.40;99.90
20364;DHT22;10340;53.664;9.908;2023-02-26T08:34:28;0.40;99.90
20364;DHT22;10340;53.664;9.908;2023-02-26T08:36:55;0.50;99.90
20364;DHT22;10340;53.664;9.908;2023-02-26T08:39:24;0.60;99.90
20364;DHT22;10340;53.664;9.908;2023-02-26T08:41:51;0.60;99.90
20364;DHT22;10340;53.664;9.908;2023-02-26T08:44:18;0.70;99.90
20364;DHT22;10340;53.664;9.908;2023-02-26T08:46:45;0.70;99.90
20364;DHT22;10340;53.664;9.908;2023-02-26T08:49:12;1.00;99.90
20364;DHT22;10340;53.664;9.908;2023-02-26T08:51:39;1.10;99.90
20364;DHT22;10340;53.664;9.908;2023-02-26T08:54:06;0.90;99.90
20364;DHT22;10340;53.664;9.908;2023-02-26T08:56:35;1.00;99.90
20364;DHT22;10340;53.664;9.908;2023-02-26T08:59:01;1.10;99.90
20364;DHT22;10340;53.664;9.908;2023-02-26T09:01:28;1.20;99.90
20364;DHT22;10340;53.664;9.908;2023-02-26T09:03:55;1.20;99.90
20364;DHT22;10340;53.664;9.908;2023-02-26T09:06:22;1.30;99.90
20364;DHT22;10340;53.664;9.908;2023-02-26T09:08:49;1.30;99.90
20364;DHT22;10340;53.664;9.908;2023-02-26T09:11:16;1.40;99.90
20364;DHT22;10340;53.664;9.908;2023-02-26T09:13:45;1.50;99.90
20364;DHT22;10340;53.664;9.908;2023-02-26T09:16:12;1.60;99.90
20364;DHT22;10340;53.664;9.908;2023-02-26T09:18:39;1.70;99.90
20364;DHT22;10340;53.664;9.908;2023-02-26T09:21:06;1.70;99.90
20364;DHT22;10340;53.664;9.908;2023-02-26T09:23:33;1.80;99.90
20364;DHT22;10340;53.664;9.908;2023-02-26T09:26:00;1.90;99.90
20364;DHT22;10340;53.664;9.908;2023-02-26T09:28:26;2.10;99.90
20364;DHT22;10340;53.664;9.908;2023-02-26T09:30:55;2.20;99.90
20364;DHT22;10340;53.664;9.908;2023-02-26T09:33:22;2.30;99.90
20364;DHT22;10340;53.664;9.908;2023-02-26T09:35:50;2.40;99.90
20364;DHT22;10340;53.664;9.908;2023-02-26T09:38:18;2.50;99.90
20364;DHT22;10340;53.664;9.908;2023-02-26T09:40:47;2.60;99.90
20364;DHT22;10340;53.664;9.908;2023-02-26T09:43:33;2.60;99.90
20364;DHT22;10340;53.664;9.908;2023-02-26T09:46:15;2.60;99.90
20364;DHT22;10340;53.664;9.908;2023-02-26T09:48:45;2.60;99.90
20364;DHT22;10340;53.664;9.908;2023-02-26T09:51:17;2.60;99.90
20364;DHT22;10340;53.664;9.908;2023-02-26T09:53:47;2.70;99.90
20364;DHT22;10340;53.664;9.908;2023-02-26T09:56:16;2.80;99.90
20364;DHT22;10340;53.664;9.908;2023-02-26T09:58:45;3.00;99.90
20364;DHT22;10340;53.664;9.908;2023-02-26T10:01:18;3.10;99.90
20364;DHT22;10340;53.664;9.908;2023-02-26T10:03:54;3.20;99.90
20364;DHT22;10340;53.664;9.908;2023-02-26T10:06:29;3.30;99.90
20364;DHT22;10340;53.664;9.908;2023-02-26T10:09:22;3.50;99.90
20364;DHT22;10340;53.664;9.908;2023-02-26T10:11:56;3.60;99.90
20364;DHT22;10340;53.664;9.908;2023-02-26T10:14:32;3.60;99.90
20364;DHT22;10340;53.664;9.908;2023-02-26T10:17:07;3.70;99.90
20364;DHT22;10340;53.664;9.908;2023-02-26T10:19:43;3.80;99.90
20364;DHT22;10340;53.664;9.908;2023-02-26T10:22:36;3.80;99.90
20364;DHT22;10340;53.664;9.908;2023-02-26T10:25:24;3.90;99.90
20364;DHT22;10340;53.664;9.908;2023-02-26T10:28:00;3.90;99.90
20364;DHT22;10340;53.664;9.908;2023-02-26T10:30:38;3.90;99.90
20364;DHT22;10340;53.664;9.908;2023-02-26T10:33:16;3.90;99.90
20364;DHT22;10340;53.664;9.908;2023-02-26T10:35:49;3.90;99.90
20364;DHT22;10340;53.664;9.908;2023-02-26T10:38:21;3.80;99.90
20364;DHT22;10340;53.664;9.908;2023-02-26T10:40:52;3.70;99.90
20364;DHT22;10340;53.664;9.908;2023-02-26T10:43:25;3.70;99.90
20364;DHT22;10340;53.664;9.908;2023-02-26T10:46:04;3.90;99.90
20364;DHT22;10340;53.664;9.908;2023-02-26T10:48:50;3.80;99.90
20364;DHT22;10340;53.664;9.908;2023-02-26T10:51:19;4.00;99.90
20364;DHT22;10340;53.664;9.908;2023-02-26T10:53:50;4.10;99.90
20364;DHT22;10340;53.664;9.908;2023-02-26T10:56:22;4.20;99.90
20364;DHT22;10340;53.664;9.908;2023-02-26T10:58:50;4.20;99.90
20364;DHT22;10340;53.664;9.908;2023-02-26T11:01:21;4.30;99.90
20364;DHT22;10340;53.664;9.908;2023-02-26T11:03:55;4.30;99.90
20364;DHT22;10340;53.664;9.908;2023-02-26T11:06:27;4.30;99.90
20364;DHT22;10340;53.664;9.908;2023-02-26T11:08:56;4.50;99.90
20364;DHT22;10340;53.664;9.908;2023-02-26T11:11:44;4.50;99.90
20364;DHT22;10340;53.664;9.908;2023-02-26T11:14:14;4.50;99.90
20364;DHT22;10340;53.664;9.908;2023-02-26T11:16:47;4.40;99.90
20364;DHT22;10340;53.664;9.908;2023-02-26T11:19:22;4.50;99.90
20364;DHT22;10340;53.664;9.908;2023-02-26T11:21:51;2.80;99.90
20364;DHT22;10340;53.664;9.908;2023-02-26T11:24:29;4.30;99.90
20364;DHT22;10340;53.664;9.908;2023-02-26T11:26:59;4.50;99.90
20364;DHT22;10340;53.664;9.908;2023-02-26T11:29:35;4.40;99.90
20364;DHT22;10340;53.664;9.908;2023-02-26T11:32:04;4.40;99.90
20364;DHT22;10340;53.664;9.908;2023-02-26T11:34:32;4.40;99.90
20364;DHT22;10340;53.664;9.908;2023-02-26T11:37:01;4.40;99.90
20364;DHT22;10340;53.664;9.908;2023-02-26T11:39:33;4.40;99.90
20364;DHT22;10340;53.664;9.908;2023-02-26T11:42:02;4.50;99.90
20364;DHT22;10340;53.664;9.908;2023-02-26T11:44:34;4.50;99.90
20364;DHT22;10340;53.664;9.908;2023-02-26T11:47:04;4.40;99.90
20364;DHT22;10340;53.664;9.908;2023-02-26T11:49:33;4.40;99.90
20364;DHT22;10340;53.664;9.908;2023-02-26T11:52:17;4.40;99.90
20364;DHT22;10340;53.664;9.908;2023-02-26T11:54:46;4.40;99.90
20364;DHT22;10340;53.664;9.908;2023-02-26T11:57:18;4.40;99.90
20364;DHT22;10340;53.664;9.908;2023-02-26T11:59:48;4.40;99.90
20364;DHT22;10340;53.664;9.908;2023-02-26T12:02:20;4.40;99.90
20364;DHT22;10340;53.664;9.908;2023-02-26T12:04:51;4.40;99.90
20364;DHT22;10340;53.664;9.908;2023-02-26T12:07:20;4.40;99.90
20364;DHT22;10340;53.664;9.908;2023-02-26T12:09:48;4.40;99.90
20364;DHT22;10340;53.664;9.908;2023-02-26T12:12:28;4.40;99.90
20364;DHT22;10340;53.664;9.908;2023-02-26T12:15:08;4.50;99.90
20364;DHT22;10340;53.664;9.908;2023-02-26T12:17:52;4.70;99.90
20364;DHT22;10340;53.664;9.908;2023-02-26T12:20:28;4.70;99.90
20364;DHT22;10340;53.664;9.908;2023-02-26T12:23:12;4.80;99.90
20364;DHT22;10340;53.664;9.908;2023-02-26T12:26:05;4.80;99.90
20364;DHT22;10340;53.664;9.908;2023-02-26T12:28:50;4.80;99.90
20364;DHT22;10340;53.664;9.908;2023-02-26T12:31:33;4.90;99.90
20364;DHT22;10340;53.664;9.908;2023-02-26T12:34:15;4.90;99.90
20364;DHT22;10340;53.664;9.908;2023-02-26T12:37:03;4.90;99.90
20364;DHT22;10340;53.664;9.908;2023-02-26T12:39:44;4.80;99.90
20364;DHT22;10340;53.664;9.908;2023-02-26T12:42:23;4.80;99.90
20364;DHT22;10340;53.664;9.908;2023-02-26T12:45:12;4.80;99.90
20364;DHT22;10340;53.664;9.908;2023-02-26T12:47:53;4.80;99.90
20364;DHT22;10340;53.664;9.908;2023-02-26T12:50:44;4.90;99.90
20364;DHT22;10340;53.664;9.908;2023-02-26T12:53:36;4.90;99.90
20364;DHT22;10340;53.664;9.908;2023-02-26T12:59:15;5.00;99.90
20364;DHT22;10340;53.664;9.908;2023-02-26T13:02:01;4.90;99.90
20364;DHT22;10340;53.664;9.908;2023-02-26T13:04:55;5.00;99.90
20364;DHT22;10340;53.664;9.908;2023-02-26T13:07:39;4.90;99.90
20364;DHT22;10340;53.664;9.908;2023-02-26T13:10:20;4.90;99.90
20364;DHT22;10340;53.664;9.908;2023-02-26T13:13:00;5.00;99.90
20364;DHT22;10340;53.664;9.908;2023-02-26T13:15:52;5.10;99.90
20364;DHT22;10340;53.664;9.908;2023-02-26T13:18:28;5.30;99.90
20364;DHT22;10340;53.664;9.908;2023-02-26T13:20:59;5.30;99.90
20364;DHT22;10340;53.664;9.908;2023-02-26T13:23:32;5.30;99.90
20364;DHT22;10340;53.664;9.908;2023-02-26T13:26:05;5.20;99.90
20364;DHT22;10340;53.664;9.908;2023-02-26T13:28:39;5.20;99.90
20364;DHT22;10340;53.664;9.908;2023-02-26T13:31:10;4.90;99.90
20364;DHT22;10340;53.664;9.908;2023-02-26T13:33:39;5.10;99.90
20364;DHT22;10340;53.664;9.908;2023-02-26T13:36:07;5.10;99.90
20364;DHT22;10340;53.664;9.908;2023-02-26T13:38:43;5.00;99.90
20364;DHT22;10340;53.664;9.908;2023-02-26T13:41:18;5.00;99.90
20364;DHT22;10340;53.664;9.908;2023-02-26T13:44:12;4.70;99.90
20364;DHT22;10340;53.664;9.908;2023-02-26T13:47:01;5.00;99.90
20364;DHT22;10340;53.664;9.908;2023-02-26T13:49:35;5.00;99.90
20364;DHT22;10340;53.664;9.908;2023-02-26T13:52:23;5.10;99.90
20364;DHT22;10340;53.664;9.908;2023-02-26T13:54:50;5.20;99.90
20364;DHT22;10340;53.664;9.908;2023-02-26T13:57:35;5.30;99.90
20364;DHT22;10340;53.664;9.908;2023-02-26T14:00:21;5.40;99.90
20364;DHT22;10340;53.664;9.908;2023-02-26T14:02:53;5.50;99.90
20364;DHT22;10340;53.664;9.908;2023-02-26T14:11:43;5.50;99.90
20364;DHT22;10340;53.664;9.908;2023-02-26T14:14:24;5.40;99.90
20364;DHT22;10340;53.664;9.908;2023-02-26T14:17:26;5.20;99.90
20364;DHT22;10340;53.664;9.908;2023-02-26T14:20:16;5.20;99.90
20364;DHT22;10340;53.664;9.908;2023-02-26T14:22:47;5.20;99.90
20364;DHT22;10340;53.664;9.908;2023-02-26T14:25:19;5.10;99.90
20364;DHT22;10340;53.664;9.908;2023-02-26T14:27:48;5.20;99.90
20364;DHT22;10340;53.664;9.908;2023-02-26T14:30:18;5.30;99.90
20364;DHT22;10340;53.664;9.908;2023-02-26T14:33:06;5.30;99.90
20364;DHT22;10340;53.664;9.908;2023-02-26T14:35:38;5.30;99.90
20364;DHT22;10340;53.664;9.908;2023-02-26T14:38:10;5.20;99.90
20364;DHT22;10340;53.664;9.908;2023-02-26T14:40:41;5.20;99.90
20364;DHT22;10340;53.664;9.908;2023-02-26T14:43:16;5.20;99.90
20364;DHT22;10340;53.664;9.908;2023-02-26T14:45:44;5.20;99.90
20364;DHT22;10340;53.664;9.908;2023-02-26T14:48:16;5.10;99.90
20364;DHT22;10340;53.664;9.908;2023-02-26T14:51:03;5.10;99.90
20364;DHT22;10340;53.664;9.908;2023-02-26T14:56:32;5.00;99.90
20364;DHT22;10340;53.664;9.908;2023-02-26T14:59:14;5.00;99.90
20364;DHT22;10340;53.664;9.908;2023-02-26T15:01:48;5.00;99.90
20364;DHT22;10340;53.664;9.908;2023-02-26T15:07:53;4.80;99.90
20364;DHT22;10340;53.664;9.908;2023-02-26T15:10:32;4.70;99.90
20364;DHT22;10340;53.664;9.908;2023-02-26T15:13:16;4.70;99.90
20364;DHT22;10340;53.664;9.908;2023-02-26T15:15:52;4.60;99.90
20364;DHT22;10340;53.664;9.908;2023-02-26T15:18:45;4.60;99.90
20364;DHT22;10340;53.664;9.908;2023-02-26T15:21:21;4.70;99.90
20364;DHT22;10340;53.664;9.908;2023-02-26T15:23:54;4.70;99.90
20364;DHT22;10340;53.664;9.908;2023-02-26T15:26:25;4.80;99.90
20364;DHT22;10340;53.664;9.908;2023-02-26T15:28:53;4.90;99.90
20364;DHT22;10340;53.664;9.908;2023-02-26T15:31:30;5.00;99.90
20364;DHT22;10340;53.664;9.908;2023-02-26T15:33:57;5.10;99.90
20364;DHT22;10340;53.664;9.908;2023-02-26T15:36:27;5.20;99.90
20364;DHT22;10340;53.664;9.908;2023-02-26T15:38:58;5.10;99.90
20364;DHT22;10340;53.664;9.908;2023-02-26T15:41:30;4.90;99.90
20364;DHT22;10340;53.664;9.908;2023-02-26T15:44:00;4.90;99.90
20364;DHT22;10340;53.664;9.908;2023-02-26T15:46:29;4.80;99.90
20364;DHT22;10340;53.664;9.908;2023-02-26T15:49:01;4.70;99.90
20364;DHT22;10340;53.664;9.908;2023-02-26T15:51:30;4.70;99.90
20364;DHT22;10340;53.664;9.908;2023-02-26T15:53:59;4.60;99.90
20364;DHT22;10340;53.664;9.908;2023-02-26T15:56:30;4.60;99.90
20364;DHT22;10340;53.664;9.908;2023-02-26T15:59:01;4.60;99.90
20364;DHT22;10340;53.664;9.908;2023-02-26T16:01:29;4.60;99.90
20364;DHT22;10340;53.664;9.908;2023-02-26T16:04:00;4.60;99.90
20364;DHT22;10340;53.664;9.908;2023-02-26T16:06:30;4.60;99.90
20364;DHT22;10340;53.664;9.908;2023-02-26T16:09:00;4.60;99.90
20364;DHT22;10340;53.664;9.908;2023-02-26T16:11:29;4.60;99.90
20364;DHT22;10340;53.664;9.908;2023-02-26T16:13:57;4.50;99.90
20364;DHT22;10340;53.664;9.908;2023-02-26T16:16:26;4.60;99.90
20364;DHT22;10340;53.664;9.908;2023-02-26T16:18:55;4.50;99.90
20364;DHT22;10340;53.664;9.908;2023-02-26T16:21:28;4.50;99.90
20364;DHT22;10340;53.664;9.908;2023-02-26T16:23:59;4.50;99.90
20364;DHT22;10340;53.664;9.908;2023-02-26T16:26:30;4.40;99.90
20364;DHT22;10340;53.664;9.908;2023-02-26T16:28:59;4.40;99.90
20364;DHT22;10340;53.664;9.908;2023-02-26T16:31:27;4.40;99.90